createdAt,value
2023-01-01T00:00:49.131Z,295.53
2023-01-01T00:03:16.357Z,276.53
2023-01-01T00:05:43.742Z,292.10
2023-01-01T00:08:10.932Z,297.87
2023-01-01T00:10:38.374Z,263.70
2023-01-01T00:13:05.824Z,269.67
2023-01-01T00:15:33.922Z,272.47
2023-01-01T00:18:01.062Z,281.23
2023-01-01T00:20:35.174Z,270.20
2023-01-01T00:23:03.308Z,244.23
2023-01-01T00:25:32.561Z,249.03
2023-01-01T00:27:59.883Z,264.97
2023-01-01T00:30:27.203Z,296.33
2023-01-01T00:32:56.034Z,236.70
2023-01-01T00:35:27.861Z,228.33
2023-01-01T00:37:55.901Z,235.77
2023-01-01T00:40:23.826Z,250.17
2023-01-01T00:42:51.017Z,236.00
2023-01-01T00:45:21.752Z,227.03
2023-01-01T00:47:54.216Z,248.07
2023-01-01T00:50:22.355Z,245.90
2023-01-01T00:52:50.148Z,242.37
2023-01-01T00:55:17.596Z,254.00
2023-01-01T00:57:44.985Z,264.40
2023-01-01T01:00:15.233Z,265.30
2023-01-01T01:02:42.543Z,261.27
2023-01-01T01:05:10.344Z,256.60
2023-01-01T01:07:38.715Z,278.10
2023-01-01T01:10:07.032Z,260.50
2023-01-01T01:12:35.635Z,301.93
2023-01-01T01:15:03.704Z,303.57
2023-01-01T01:17:31.015Z,290.67
2023-01-01T01:20:01.169Z,235.17
2023-01-01T01:22:31.833Z,209.67
2023-01-01T01:24:58.929Z,207.27
2023-01-01T01:27:26.593Z,207.77
2023-01-01T01:29:54.266Z,214.37
2023-01-01T01:32:21.459Z,205.47
2023-01-01T01:34:48.610Z,188.63
2023-01-01T01:37:15.831Z,180.50
2023-01-01T01:39:43.106Z,207.53
2023-01-01T01:42:18.400Z,180.63
2023-01-01T01:45:07.230Z,169.48
2023-01-01T01:48:11.312Z,164.63
2023-01-01T01:50:42.419Z,162.27
2023-01-01T01:53:30.699Z,169.97
2023-01-01T01:56:03.382Z,169.33
2023-01-01T01:58:32.855Z,191.67
2023-01-01T02:01:01.014Z,170.03
2023-01-01T02:03:49.301Z,203.77
2023-01-01T02:06:19.297Z,175.00
2023-01-01T02:08:47.387Z,195.20
2023-01-01T02:11:21.901Z,174.67
2023-01-01T02:13:50.908Z,181.53
2023-01-01T02:16:27.503Z,178.60
2023-01-01T02:19:18.427Z,210.87
2023-01-01T02:21:59.779Z,180.47
2023-01-01T02:25:15.762Z,177.23
2023-01-01T02:28:12.302Z,194.73
2023-01-01T02:30:41.872Z,168.40
2023-01-01T02:33:18.114Z,170.80
2023-01-01T02:36:03.805Z,165.47
2023-01-01T02:38:41.436Z,169.00
2023-01-01T02:41:28.569Z,167.40
2023-01-01T02:48:53.567Z,173.57
2023-01-01T02:51:23.459Z,152.47
2023-01-01T02:54:11.835Z,150.43
2023-01-01T02:56:55.807Z,158.07
2023-01-01T03:00:19.628Z,143.03
2023-01-01T03:03:14.297Z,139.37
2023-01-01T03:06:09.388Z,175.77
2023-01-01T03:09:27.179Z,154.43
2023-01-01T03:12:39.969Z,147.77
2023-01-01T03:15:14.870Z,145.37
2023-01-01T03:18:27.003Z,131.50
2023-01-01T03:21:00.159Z,123.10
2023-01-01T03:23:35.968Z,119.80
2023-01-01T03:28:46.637Z,139.03
2023-01-01T03:31:19.244Z,121.80
2023-01-01T03:33:52.431Z,117.23
2023-01-01T03:36:27.893Z,115.70
2023-01-01T03:39:08.399Z,118.50
2023-01-01T03:42:02.300Z,121.97
2023-01-01T03:44:45.285Z,125.10
2023-01-01T03:47:13.256Z,113.00
2023-01-01T03:49:40.699Z,108.53
2023-01-01T03:52:36.023Z,119.50
2023-01-01T03:55:31.392Z,98.97
2023-01-01T03:58:12.779Z,101.83
2023-01-01T04:00:51.424Z,101.20
2023-01-01T04:03:29.201Z,111.40
2023-01-01T04:05:56.359Z,105.53
2023-01-01T04:08:23.757Z,95.43
2023-01-01T04:10:59.551Z,96.77
2023-01-01T04:13:26.901Z,93.03
2023-01-01T04:15:54.106Z,97.00
2023-01-01T04:18:21.415Z,96.87
2023-01-01T04:20:57.938Z,97.60
2023-01-01T04:23:25.060Z,88.20
2023-01-01T04:25:52.241Z,85.17
2023-01-01T04:28:20.363Z,81.83
2023-01-01T04:30:47.508Z,87.40
2023-01-01T04:33:14.623Z,89.70
2023-01-01T04:35:41.708Z,82.33
2023-01-01T04:38:14.561Z,86.77
2023-01-01T04:40:41.647Z,78.97
2023-01-01T04:43:08.824Z,80.77
2023-01-01T04:45:36.013Z,80.03
2023-01-01T04:48:05.737Z,79.93
2023-01-01T04:50:32.897Z,75.53
2023-01-01T04:53:00.139Z,73.13
2023-01-01T04:55:27.242Z,69.63
2023-01-01T04:57:54.347Z,70.10
2023-01-01T05:00:24.967Z,71.90
2023-01-01T05:02:52.224Z,69.23
2023-01-01T05:05:19.728Z,73.87
2023-01-01T05:07:49.631Z,67.93
2023-01-01T05:10:16.907Z,67.17
2023-01-01T05:12:44.030Z,63.43
2023-01-01T05:15:11.406Z,61.57
2023-01-01T05:17:38.522Z,64.20
2023-01-01T05:20:06.437Z,61.27
2023-01-01T05:22:33.595Z,58.97
2023-01-01T05:25:00.721Z,61.03
2023-01-01T05:27:27.829Z,61.30
2023-01-01T05:29:54.924Z,60.17
2023-01-01T05:32:22.077Z,59.13
2023-01-01T05:34:49.193Z,61.33
2023-01-01T05:37:16.354Z,61.97
2023-01-01T05:39:43.455Z,64.30
2023-01-01T05:42:10.729Z,58.23
2023-01-01T05:44:38.009Z,59.50
2023-01-01T05:47:05.300Z,62.80
2023-01-01T05:49:36.496Z,72.07
2023-01-01T05:52:04.155Z,67.87
2023-01-01T05:54:31.248Z,67.10
2023-01-01T05:56:58.319Z,75.03
2023-01-01T05:59:25.380Z,97.90
2023-01-01T06:01:55.777Z,98.03
2023-01-01T06:04:23.017Z,80.83
2023-01-01T06:06:50.163Z,79.93
2023-01-01T06:09:17.458Z,81.30
2023-01-01T06:11:44.533Z,77.97
2023-01-01T06:14:11.640Z,76.07
2023-01-01T06:16:38.809Z,73.70
2023-01-01T06:19:05.920Z,73.87
2023-01-01T06:21:33.172Z,76.13
2023-01-01T06:24:01.078Z,78.17
2023-01-01T06:26:31.953Z,80.50
2023-01-01T06:29:01.740Z,81.77
2023-01-01T06:31:34.099Z,79.97
2023-01-01T06:34:04.339Z,73.30
2023-01-01T06:36:31.511Z,72.17
2023-01-01T06:39:03.571Z,71.43
2023-01-01T06:41:31.337Z,73.37
2023-01-01T06:44:00.955Z,79.37
2023-01-01T06:46:34.753Z,72.17
2023-01-01T06:49:10.171Z,78.53
2023-01-01T06:51:43.653Z,84.53
2023-01-01T06:54:12.165Z,83.60
2023-01-01T06:56:40.056Z,75.73
2023-01-01T06:59:07.343Z,72.17
2023-01-01T07:01:37.041Z,86.77
2023-01-01T07:04:11.649Z,83.37
2023-01-01T07:06:39.358Z,95.33
2023-01-01T07:09:08.435Z,84.80
2023-01-01T07:11:36.012Z,83.70
2023-01-01T07:14:04.233Z,91.83
2023-01-01T07:16:31.793Z,86.37
2023-01-01T07:18:58.886Z,81.40
2023-01-01T07:21:33.308Z,98.17
2023-01-01T07:24:04.368Z,99.20
2023-01-01T07:26:33.439Z,84.70
2023-01-01T07:29:08.083Z,83.53
2023-01-01T07:31:37.696Z,80.30
2023-01-01T07:34:06.578Z,90.10
2023-01-01T07:36:34.141Z,93.47
2023-01-01T07:39:01.452Z,81.43
2023-01-01T07:41:28.617Z,93.90
2023-01-01T07:43:55.805Z,83.97
2023-01-01T07:46:25.515Z,84.33
2023-01-01T07:48:52.927Z,82.73
2023-01-01T07:51:20.128Z,83.53
2023-01-01T07:53:47.223Z,82.77
2023-01-01T07:56:14.356Z,94.70
2023-01-01T07:58:42.239Z,83.53
2023-01-01T08:01:14.634Z,82.50
2023-01-01T08:03:42.444Z,82.97
2023-01-01T08:06:12.135Z,81.90
2023-01-01T08:08:39.680Z,85.67
2023-01-01T08:11:07.532Z,87.80
2023-01-01T08:13:34.775Z,93.23
2023-01-01T08:16:02.293Z,90.53
2023-01-01T08:18:29.523Z,105.73
2023-01-01T08:20:57.597Z,95.00
2023-01-01T08:23:25.185Z,88.10
2023-01-01T08:25:52.460Z,102.03
2023-01-01T08:28:19.890Z,88.83
2023-01-01T08:30:47.012Z,89.37
2023-01-01T08:33:14.158Z,97.23
2023-01-01T08:35:42.968Z,95.27
2023-01-01T08:38:12.432Z,90.63
2023-01-01T08:40:40.359Z,97.50
2023-01-01T08:43:07.632Z,108.17
2023-01-01T08:45:34.986Z,99.20
2023-01-01T08:48:02.240Z,102.93
2023-01-01T08:50:29.600Z,99.50
2023-01-01T08:52:59.806Z,100.53
2023-01-01T08:55:27.287Z,87.93
2023-01-01T08:57:54.547Z,79.93
2023-01-01T09:00:21.758Z,75.27
2023-01-01T09:02:49.155Z,69.07
2023-01-01T09:05:16.557Z,68.03
2023-01-01T09:07:43.654Z,65.00
2023-01-01T09:10:10.816Z,66.63
2023-01-01T09:12:38.166Z,65.20
2023-01-01T09:15:06.296Z,66.87
2023-01-01T09:17:33.427Z,62.77
2023-01-01T09:20:00.525Z,64.73
2023-01-01T09:22:27.642Z,70.63
2023-01-01T09:24:54.807Z,75.27
2023-01-01T09:27:21.903Z,62.63
2023-01-01T09:29:49.004Z,63.80
2023-01-01T09:32:16.369Z,69.90
2023-01-01T09:34:48.718Z,71.88
2023-01-01T09:37:19.482Z,69.28
2023-01-01T09:39:47.075Z,75.90
2023-01-01T09:42:45.009Z,77.03
2023-01-01T09:45:26.092Z,78.17
2023-01-01T09:47:59.904Z,85.53
2023-01-01T09:50:41.701Z,80.90
2023-01-01T09:53:37.731Z,87.97
2023-01-01T09:56:06.220Z,84.47
2023-01-01T09:58:37.456Z,82.93
2023-01-01T10:01:45.708Z,91.65
2023-01-01T10:04:46.413Z,85.32
2023-01-01T10:07:29.766Z,81.78
2023-01-01T10:10:52.713Z,77.55
2023-01-01T10:13:33.924Z,72.03
2023-01-01T10:16:15.245Z,77.38
2023-01-01T10:18:50.242Z,77.13
2023-01-01T10:21:24.298Z,62.42
2023-01-01T10:24:05.895Z,48.95
2023-01-01T10:26:37.695Z,50.72
2023-01-01T10:29:37.073Z,43.17
2023-01-01T10:32:19.541Z,39.97
2023-01-01T10:34:47.147Z,33.20
2023-01-01T10:37:15.454Z,32.17
2023-01-01T10:39:45.180Z,32.70
2023-01-01T10:42:14.117Z,33.45
2023-01-01T10:44:41.818Z,33.33
2023-01-01T10:47:29.930Z,28.92
2023-01-01T10:50:01.109Z,30.05
2023-01-01T10:52:35.569Z,29.17
2023-01-01T10:55:03.532Z,28.90
2023-01-01T10:57:35.886Z,30.42
2023-01-01T11:00:24.543Z,32.20
2023-01-01T11:03:20.085Z,29.40
2023-01-01T11:06:23.055Z,28.83
2023-01-01T11:08:58.794Z,27.63
2023-01-01T11:11:55.492Z,28.83
2023-01-01T11:17:02.201Z,25.85
2023-01-01T11:19:38.312Z,24.13
2023-01-01T11:22:06.427Z,24.23
2023-01-01T11:24:35.514Z,24.17
2023-01-01T11:27:26.116Z,24.10
2023-01-01T11:30:20.335Z,23.58
2023-01-01T11:32:55.134Z,24.55
2023-01-01T11:35:27.102Z,24.63
2023-01-01T11:37:56.902Z,25.48
2023-01-01T11:40:44.627Z,21.45
2023-01-01T11:43:22.462Z,23.45
2023-01-01T11:45:58.744Z,25.20
2023-01-01T11:48:33.655Z,24.40
2023-01-01T11:51:08.399Z,23.47
2023-01-01T11:53:41.734Z,23.92
2023-01-01T11:56:22.418Z,23.17
2023-01-01T11:59:22.089Z,24.05
2023-01-01T12:01:59.327Z,22.95
2023-01-01T12:04:40.779Z,22.52
2023-01-01T12:07:15.545Z,21.95
2023-01-01T12:10:13.903Z,22.50
2023-01-01T12:13:22.561Z,22.55
2023-01-01T12:16:24.240Z,22.05
2023-01-01T12:19:13.525Z,21.85
2023-01-01T12:21:48.993Z,22.08
2023-01-01T12:24:20.256Z,21.33
2023-01-01T12:27:40.994Z,21.55
2023-01-01T12:30:58.308Z,20.42
2023-01-01T12:33:40.563Z,20.40
2023-01-01T12:36:49.713Z,21.73
2023-01-01T12:39:47.859Z,20.15
2023-01-01T12:42:23.625Z,21.13
2023-01-01T12:45:08.755Z,20.38
2023-01-01T12:47:47.476Z,20.35
2023-01-01T12:50:26.557Z,21.30
2023-01-01T12:53:21.560Z,21.27
2023-01-01T12:56:17.581Z,21.75
2023-01-01T12:59:07.357Z,20.65
2023-01-01T13:01:36.679Z,20.98
2023-01-01T13:04:33.359Z,21.75
2023-01-01T13:09:48.336Z,19.85
2023-01-01T13:12:22.918Z,21.20
2023-01-01T13:14:51.055Z,21.15
2023-01-01T13:17:19.229Z,19.67
2023-01-01T13:19:46.905Z,18.83
2023-01-01T13:22:26.199Z,19.63
2023-01-01T13:25:11.034Z,21.40
2023-01-01T13:28:12.383Z,21.90
2023-01-01T13:30:41.405Z,22.33
2023-01-01T13:33:26.968Z,24.33
2023-01-01T13:36:12.158Z,22.58
2023-01-01T13:38:58.067Z,22.92
2023-01-01T13:41:41.363Z,22.73
2023-01-01T13:44:08.325Z,22.88
2023-01-01T13:46:52.272Z,22.73
2023-01-01T13:49:45.622Z,21.58
2023-01-01T13:52:49.174Z,23.55
2023-01-01T13:55:38.473Z,23.98
2023-01-01T13:58:32.012Z,23.45
2023-01-01T14:01:27.127Z,23.00
2023-01-01T14:04:00.608Z,23.52
2023-01-01T14:06:35.811Z,24.98
2023-01-01T14:09:19.497Z,19.75
2023-01-01T14:11:46.656Z,19.92
2023-01-01T14:14:29.627Z,20.42
2023-01-01T14:17:05.648Z,20.98
2023-01-01T14:19:33.219Z,20.75
2023-01-01T14:22:00.844Z,22.42
2023-01-01T14:24:28.765Z,23.08
2023-01-01T14:26:55.994Z,23.67
2023-01-01T14:29:30.922Z,24.35
2023-01-01T14:32:02.361Z,23.88
2023-01-01T14:34:32.806Z,23.30
2023-01-01T14:37:03.958Z,25.52
2023-01-01T14:39:34.904Z,25.17
2023-01-01T14:42:15.302Z,26.20
2023-01-01T14:44:49.639Z,24.75
2023-01-01T14:47:50.466Z,23.70
2023-01-01T14:50:17.486Z,26.00
2023-01-01T14:52:46.144Z,24.13
2023-01-01T14:55:19.976Z,23.05
2023-01-01T14:57:55.079Z,23.70
2023-01-01T15:00:27.327Z,23.02
2023-01-01T15:02:54.842Z,22.27
2023-01-01T15:05:36.079Z,20.75
2023-01-01T15:08:18.659Z,19.65
2023-01-01T15:10:46.116Z,19.92
2023-01-01T15:13:20.724Z,19.75
2023-01-01T15:16:10.496Z,19.58
2023-01-01T15:18:46.063Z,19.02
2023-01-01T15:21:31.278Z,19.30
2023-01-01T15:24:11.471Z,20.83
2023-01-01T15:26:44.729Z,19.90
2023-01-01T15:29:26.033Z,20.40
2023-01-01T15:32:03.637Z,20.38
2023-01-01T15:34:33.153Z,21.63
2023-01-01T15:37:21.654Z,20.92
2023-01-01T15:39:53.163Z,22.70
2023-01-01T15:42:40.653Z,21.48
2023-01-01T15:45:34.907Z,20.52
2023-01-01T15:48:04.737Z,20.27
2023-01-01T15:50:40.285Z,20.73
2023-01-01T15:53:25.383Z,20.05
2023-01-01T15:56:01.347Z,22.50
2023-01-01T15:59:07.172Z,21.05
2023-01-01T16:01:40.080Z,20.25
2023-01-01T16:04:28.069Z,22.05
2023-01-01T16:06:58.422Z,21.20
2023-01-01T16:09:25.569Z,20.75
2023-01-01T16:11:55.749Z,20.75
2023-01-01T16:14:23.819Z,21.35
2023-01-01T16:16:57.463Z,20.02
2023-01-01T16:19:30.751Z,20.63
2023-01-01T16:21:58.265Z,18.42
2023-01-01T16:24:25.497Z,19.42
2023-01-01T16:26:55.837Z,19.27
2023-01-01T16:29:23.384Z,19.23
2023-01-01T16:31:51.985Z,16.83
2023-01-01T16:34:19.281Z,17.50
2023-01-01T16:36:47.531Z,16.77
2023-01-01T16:39:14.817Z,17.45
2023-01-01T16:41:43.917Z,20.13
2023-01-01T16:44:15.826Z,19.48
2023-01-01T16:46:43.160Z,20.17
2023-01-01T16:49:10.483Z,19.73
2023-01-01T16:51:43.179Z,21.23
2023-01-01T16:54:11.674Z,18.67
2023-01-01T16:56:39.055Z,20.42
2023-01-01T16:59:06.490Z,20.40
2023-01-01T17:01:34.008Z,20.38
2023-01-01T17:04:01.503Z,24.02
2023-01-01T17:06:29.027Z,23.75
2023-01-01T17:08:56.301Z,22.00
2023-01-01T17:11:26.333Z,23.13
2023-01-01T17:13:53.849Z,21.73
2023-01-01T17:16:28.071Z,22.48
2023-01-01T17:19:15.682Z,21.88
2023-01-01T17:21:46.408Z,22.88
2023-01-01T17:24:15.283Z,23.95
2023-01-01T17:26:42.815Z,22.98
2023-01-01T17:29:11.139Z,21.45
2023-01-01T17:31:38.308Z,21.90
2023-01-01T17:34:05.645Z,21.02
2023-01-01T17:36:33.438Z,21.98
2023-01-01T17:39:00.892Z,20.25
2023-01-01T17:41:28.528Z,19.75
2023-01-01T17:43:57.190Z,22.63
2023-01-01T17:46:28.560Z,22.80
2023-01-01T17:48:56.003Z,24.00
2023-01-01T17:51:24.488Z,22.60
2023-01-01T17:53:52.177Z,22.52
2023-01-01T17:56:22.285Z,22.10
2023-01-01T17:58:53.687Z,22.08
2023-01-01T18:01:27.154Z,20.92
2023-01-01T18:04:01.646Z,22.00
2023-01-01T18:06:31.229Z,21.08
2023-01-01T18:09:02.486Z,20.40
2023-01-01T18:11:31.665Z,22.40
2023-01-01T18:14:02.062Z,24.63
2023-01-01T18:16:31.621Z,25.20
2023-01-01T18:19:04.033Z,21.67
2023-01-01T18:24:02.732Z,21.52
2023-01-01T18:26:31.311Z,23.30
2023-01-01T18:29:01.746Z,22.42
2023-01-01T18:31:32.833Z,22.92
2023-01-01T18:34:04.531Z,23.83
2023-01-01T18:36:34.851Z,21.42
2023-01-01T18:39:32.054Z,24.70
2023-01-01T18:42:19.861Z,26.23
2023-01-01T18:44:47.826Z,22.10
2023-01-01T18:47:18.599Z,23.55
2023-01-01T18:50:26.636Z,23.50
2023-01-01T18:53:22.261Z,24.23
2023-01-01T18:56:25.381Z,25.45
2023-01-01T18:58:57.096Z,23.77
2023-01-01T19:01:25.613Z,23.63
2023-01-01T19:03:59.603Z,22.98
2023-01-01T19:06:33.538Z,20.88
2023-01-01T19:09:25.305Z,22.35
2023-01-01T19:11:55.426Z,21.45
2023-01-01T19:14:25.540Z,22.67
2023-01-01T19:16:58.145Z,21.67
2023-01-01T19:19:29.903Z,20.57
2023-01-01T19:22:32.259Z,22.40
2023-01-01T19:25:22.298Z,21.58
2023-01-01T19:27:53.476Z,20.38
2023-01-01T19:30:26.167Z,20.50
2023-01-01T19:32:54.004Z,19.85
2023-01-01T19:35:21.584Z,19.67
2023-01-01T19:37:51.647Z,20.17
2023-01-01T19:40:19.293Z,19.20
2023-01-01T19:42:46.796Z,19.52
2023-01-01T19:45:14.198Z,19.05
2023-01-01T19:47:45.609Z,19.30
2023-01-01T19:50:21.683Z,21.33
2023-01-01T19:52:50.763Z,19.67
2023-01-01T19:55:18.107Z,21.75
2023-01-01T19:57:46.061Z,21.50
2023-01-01T20:00:14.720Z,21.05
2023-01-01T20:02:46.509Z,19.60
2023-01-01T20:05:17.760Z,22.20
2023-01-01T20:07:48.289Z,22.27
2023-01-01T20:10:16.694Z,24.48
2023-01-01T20:12:45.700Z,22.70
2023-01-01T20:15:16.421Z,23.85
2023-01-01T20:17:44.828Z,23.20
2023-01-01T20:20:12.917Z,25.07
2023-01-01T20:22:42.615Z,23.90
2023-01-01T20:25:11.738Z,23.85
2023-01-01T20:28:04.154Z,22.10
2023-01-01T20:30:32.386Z,24.00
2023-01-01T20:33:00.779Z,24.17
2023-01-01T20:35:46.998Z,24.38
2023-01-01T20:38:19.006Z,117.40
2023-01-01T20:40:47.801Z,84.07
2023-01-01T20:43:17.391Z,62.63
2023-01-01T20:45:45.518Z,35.70
2023-01-01T20:48:19.555Z,28.42
2023-01-01T20:50:47.773Z,26.67
2023-01-01T20:53:15.876Z,26.35
2023-01-01T20:55:43.907Z,27.15
2023-01-01T20:58:13.223Z,25.48
2023-01-01T21:00:43.420Z,26.35
2023-01-01T21:03:11.641Z,26.70
2023-01-01T21:05:39.752Z,27.23
2023-01-01T21:08:09.134Z,26.05
2023-01-01T21:10:38.801Z,28.35
2023-01-01T21:13:11.623Z,27.30
2023-01-01T21:15:42.138Z,26.05
2023-01-01T21:18:12.877Z,28.70
2023-01-01T21:20:50.699Z,26.08
2023-01-01T21:23:29.823Z,26.00
2023-01-01T21:28:33.110Z,26.00
2023-01-01T21:31:01.359Z,27.15
2023-01-01T21:33:32.044Z,23.15
2023-01-01T21:36:05.617Z,26.27
2023-01-01T21:38:33.022Z,25.95
2023-01-01T21:41:02.182Z,26.17
2023-01-01T21:43:36.650Z,25.73
2023-01-01T21:46:07.001Z,27.55
2023-01-01T21:48:39.408Z,27.55
2023-01-01T21:51:21.704Z,27.85
2023-01-01T21:53:49.300Z,27.13
2023-01-01T21:56:34.134Z,26.40
2023-01-01T21:59:37.875Z,25.75
2023-01-01T22:02:08.066Z,25.77
2023-01-01T22:04:48.956Z,29.30
2023-01-01T22:10:25.475Z,28.33
2023-01-01T22:13:01.576Z,27.48
2023-01-01T22:15:40.782Z,28.38
2023-01-01T22:18:28.392Z,29.90
2023-01-01T22:20:56.484Z,28.10
2023-01-01T22:23:38.268Z,27.10
2023-01-01T22:26:18.645Z,28.20
2023-01-01T22:28:49.379Z,29.30
2023-01-01T22:31:25.825Z,27.80
2023-01-01T22:33:55.418Z,30.40
2023-01-01T22:36:34.658Z,27.55
2023-01-01T22:39:12.433Z,29.65
2023-01-01T22:41:41.329Z,29.45
2023-01-01T22:44:11.592Z,27.35
2023-01-01T22:46:42.706Z,29.88
2023-01-01T22:49:19.040Z,28.70
2023-01-01T22:51:49.769Z,28.85
2023-01-01T22:54:16.920Z,30.10
2023-01-01T22:56:44.039Z,29.15
2023-01-01T22:59:11.184Z,30.02
2023-01-01T23:01:38.444Z,31.33
2023-01-01T23:04:05.651Z,31.65
2023-01-01T23:06:33.327Z,28.65
2023-01-01T23:09:04.256Z,30.23
2023-01-01T23:11:34.802Z,27.95
2023-01-01T23:14:20.749Z,30.25
2023-01-01T23:16:47.844Z,27.80
2023-01-01T23:19:18.010Z,28.90
2023-01-01T23:21:45.762Z,27.63
2023-01-01T23:24:19.147Z,27.17
2023-01-01T23:26:48.488Z,25.15
2023-01-01T23:29:17.063Z,26.48
2023-01-01T23:31:45.361Z,27.27
2023-01-01T23:34:13.092Z,27.85
2023-01-01T23:36:43.402Z,26.98
2023-01-01T23:39:10.659Z,28.30
2023-01-01T23:41:37.780Z,26.23
2023-01-01T23:44:05.306Z,26.90
2023-01-01T23:46:36.731Z,27.48
2023-01-01T23:49:05.725Z,25.00
2023-01-01T23:51:33.973Z,27.38
2023-01-01T23:54:01.218Z,27.40
2023-01-01T23:56:28.380Z,24.10
2023-01-01T23:58:55.725Z,22.45
